Decoded Metar for YBMA (MOUNT ISA in AUSTRALIA) (IATA:ISA) | Meteo·Mobile Aviation Weather
aviador You're here:

YBMA Decoded Metar

MOUNT ISA in AUSTRALIA
Report Time2018-11-19 02:30:00
UTC Time2018-11-19 02:53:57
Flight Rules vfr VFR
Wind060° at 08 kt
W.Decomp.*RWY 34: 2.1 kt HW 7.7 kt RCW
W.Rank060° ranks 19
Current wind is above 060° avg. (7.5)
Visibility9999 m
Phenomena:N/A
Clouds:N/A
Expected CloudBase > 8,000 ft AGL from Temp-Dew spread
CeilingNone
Temp34°C (ISA +21)
Dew Point14°C (30% RH)
Heat Index33.3°C
AAT32.4°C
QNH1010 hPa
Density Alt3,855 ft
Elevation1,129 ft
Report Wrong Elevation
Raw Report
YBMA 190230Z AUTO 06008KT 9999 // NCD 34/14 Q1010 RF00.0/000.0=

Extra information for YBMA:More info

Metar Taf Metar & Taf Last 4 Metars F.Rules Stats Wind Profile Meteogram Temp Stats Airport Information Weather charts Add Link Nearby VenuesMetar ALERT Operation Metar Decoded Social comments